createdAt,value
2023-04-25T00:00:21.115Z,5.15
2023-04-25T00:02:48.638Z,4.55
2023-04-25T00:05:17.324Z,5.03
2023-04-25T00:07:44.687Z,5.03
2023-04-25T00:10:12.773Z,4.43
2023-04-25T00:12:40.194Z,5.70
2023-04-25T00:15:07.827Z,4.22
2023-04-25T00:17:35.953Z,4.18
2023-04-25T00:20:06.052Z,3.72
2023-04-25T00:22:34.579Z,4.18
2023-04-25T00:25:01.773Z,4.63
2023-04-25T00:27:29.051Z,3.67
2023-04-25T00:29:56.250Z,4.38
2023-04-25T00:32:23.511Z,3.95
2023-04-25T00:34:50.711Z,3.45
2023-04-25T00:37:19.313Z,3.97
2023-04-25T00:39:46.523Z,5.68
2023-04-25T00:42:13.972Z,5.03
2023-04-25T00:44:41.273Z,4.40
2023-04-25T00:47:08.728Z,3.90
2023-04-25T00:49:36.016Z,4.20
2023-04-25T00:52:03.292Z,4.63
2023-04-25T00:54:31.687Z,4.47
2023-04-25T00:56:59.210Z,4.40
2023-04-25T00:59:28.186Z,4.50
2023-04-25T01:01:56.007Z,4.80
2023-04-25T01:04:23.410Z,5.43
2023-04-25T01:06:51.341Z,5.18
2023-04-25T01:09:18.985Z,6.22
2023-04-25T01:11:46.242Z,5.05
2023-04-25T01:14:13.515Z,5.68
2023-04-25T01:16:40.953Z,6.32
2023-04-25T01:19:13.194Z,5.32
2023-04-25T01:21:40.999Z,4.90
2023-04-25T01:24:09.008Z,5.28
2023-04-25T01:26:37.701Z,5.43
2023-04-25T01:29:08.934Z,5.22
2023-04-25T01:31:36.749Z,4.93
2023-04-25T01:34:04.095Z,5.93
2023-04-25T01:36:32.319Z,4.85
2023-04-25T01:38:59.737Z,4.80
2023-04-25T01:41:27.173Z,4.53
2023-04-25T01:43:54.485Z,5.45
2023-04-25T01:46:21.849Z,5.57
2023-04-25T01:48:49.806Z,5.00
2023-04-25T01:51:17.768Z,4.65
2023-04-25T01:53:45.264Z,4.53
2023-04-25T01:56:12.942Z,4.47
2023-04-25T01:58:40.781Z,3.65
2023-04-25T02:01:32.405Z,4.28
2023-04-25T02:04:14.174Z,3.88
2023-04-25T02:06:42.250Z,2.83
2023-04-25T02:09:09.519Z,6.22
2023-04-25T02:11:41.508Z,3.95
2023-04-25T02:14:23.021Z,4.97
2023-04-25T02:17:09.173Z,3.47
2023-04-25T02:19:36.753Z,4.22
2023-04-25T02:22:04.024Z,5.43
2023-04-25T02:24:31.338Z,4.82
2023-04-25T02:26:58.644Z,3.42
2023-04-25T02:29:25.951Z,4.32
2023-04-25T02:31:53.239Z,3.60
2023-04-25T02:34:20.925Z,3.60
2023-04-25T02:36:48.209Z,5.25
2023-04-25T02:39:18.691Z,3.20
2023-04-25T02:41:45.980Z,4.43
2023-04-25T02:44:13.206Z,3.38
2023-04-25T02:46:40.550Z,3.03
2023-04-25T02:49:08.254Z,3.33
2023-04-25T02:51:36.479Z,3.35
2023-04-25T02:54:04.005Z,4.07
2023-04-25T02:56:34.675Z,3.55
2023-04-25T02:59:02.052Z,4.18
2023-04-25T03:01:31.092Z,3.10
2023-04-25T03:03:58.408Z,4.07
2023-04-25T03:06:26.048Z,3.78
2023-04-25T03:08:53.588Z,3.58
2023-04-25T03:11:21.338Z,4.63
2023-04-25T03:13:49.081Z,3.60
2023-04-25T03:16:17.174Z,4.43
2023-04-25T03:18:44.560Z,3.30
2023-04-25T03:21:11.957Z,3.05
2023-04-25T03:23:39.168Z,3.90
2023-04-25T03:26:06.562Z,3.58
2023-04-25T03:28:33.797Z,3.50
2023-04-25T03:31:01.044Z,3.28
2023-04-25T03:33:28.457Z,2.83
2023-04-25T03:35:55.742Z,4.65
2023-04-25T03:38:23.025Z,2.72
2023-04-25T03:40:51.799Z,3.28
2023-04-25T03:43:26.576Z,2.55
2023-04-25T03:45:59.475Z,2.78
2023-04-25T03:48:27.711Z,3.42
2023-04-25T03:50:55.816Z,3.15
2023-04-25T03:53:23.491Z,3.20
2023-04-25T03:56:10.492Z,2.35
2023-04-25T03:58:39.503Z,2.50
2023-04-25T04:01:08.940Z,3.58
2023-04-25T04:03:39.413Z,2.50
2023-04-25T04:06:08.724Z,2.58
2023-04-25T04:08:42.070Z,3.05
2023-04-25T04:11:11.738Z,4.00
2023-04-25T04:13:39.142Z,2.85
2023-04-25T04:16:07.659Z,1.87
2023-04-25T04:18:35.315Z,2.67
2023-04-25T04:21:03.010Z,2.22
2023-04-25T04:23:33.279Z,1.90
2023-04-25T04:26:01.776Z,1.55
2023-04-25T04:28:45.227Z,1.75
2023-04-25T04:31:20.552Z,2.95
2023-04-25T04:33:48.698Z,2.00
2023-04-25T04:36:20.716Z,2.05
2023-04-25T04:38:48.250Z,2.75
2023-04-25T04:41:24.707Z,3.22
2023-04-25T04:44:09.984Z,1.95
2023-04-25T04:46:47.870Z,2.22
2023-04-25T04:49:31.643Z,2.10
2023-04-25T04:54:54.287Z,2.33
2023-04-25T04:57:40.470Z,2.17
2023-04-25T05:00:37.168Z,3.72
2023-04-25T05:03:23.035Z,2.65
2023-04-25T05:06:22.834Z,2.30
2023-04-25T05:09:20.212Z,2.42
2023-04-25T05:12:05.821Z,2.42
2023-04-25T05:14:48.215Z,2.08
2023-04-25T05:17:43.030Z,2.00
2023-04-25T05:20:33.298Z,2.47
2023-04-25T05:23:15.495Z,2.22
2023-04-25T05:25:53.615Z,2.00
2023-04-25T05:28:42.667Z,1.85
2023-04-25T05:31:24.562Z,2.92
2023-04-25T05:34:00.785Z,2.70
2023-04-25T05:36:38.033Z,3.83
2023-04-25T05:39:05.649Z,2.20
2023-04-25T05:41:51.398Z,2.35
2023-04-25T05:44:37.287Z,3.38
2023-04-25T05:47:18.057Z,3.05
2023-04-25T05:50:01.058Z,2.35
2023-04-25T05:52:48.629Z,2.15
2023-04-25T05:55:44.853Z,2.08
2023-04-25T05:58:22.499Z,2.67
2023-04-25T06:00:49.964Z,4.57
2023-04-25T06:03:20.505Z,4.10
2023-04-25T06:05:48.740Z,6.97
2023-04-25T06:08:16.195Z,8.30
2023-04-25T06:10:44.103Z,7.28
2023-04-25T06:13:11.423Z,3.30
2023-04-25T06:15:38.865Z,3.30
2023-04-25T06:18:06.185Z,2.97
2023-04-25T06:20:35.139Z,3.40
2023-04-25T06:23:02.734Z,3.05
2023-04-25T06:25:41.969Z,3.40
2023-04-25T06:28:09.297Z,2.10
2023-04-25T06:30:36.972Z,2.90
2023-04-25T06:33:09.794Z,3.30
2023-04-25T06:35:37.560Z,3.87
2023-04-25T06:38:06.135Z,2.15
2023-04-25T06:40:33.578Z,3.30
2023-04-25T06:43:01.114Z,4.20
2023-04-25T06:45:48.555Z,3.85
2023-04-25T06:48:16.590Z,3.25
2023-04-25T06:50:44.078Z,2.00
2023-04-25T06:53:13.093Z,4.13
2023-04-25T06:55:42.396Z,2.38
2023-04-25T06:58:14.830Z,2.60
2023-04-25T07:00:53.701Z,1.00
2023-04-25T07:03:24.080Z,1.85
2023-04-25T07:05:56.027Z,0.90
2023-04-25T07:08:24.396Z,1.25
2023-04-25T07:10:51.716Z,1.48
2023-04-25T07:13:18.996Z,0.82
2023-04-25T07:15:46.474Z,0.90
2023-04-25T07:18:14.174Z,1.13
2023-04-25T07:20:41.512Z,0.82
2023-04-25T07:23:09.003Z,1.35
2023-04-25T07:25:36.546Z,1.88
2023-04-25T07:28:04.386Z,2.60
2023-04-25T07:30:31.766Z,1.17
2023-04-25T07:32:59.179Z,1.33
2023-04-25T07:35:26.538Z,1.30
2023-04-25T07:37:53.774Z,1.40
2023-04-25T07:40:21.105Z,1.40
2023-04-25T07:42:52.661Z,1.95
2023-04-25T07:45:27.593Z,1.52
2023-04-25T07:47:55.335Z,2.15
2023-04-25T07:50:23.092Z,1.58
2023-04-25T07:52:50.519Z,1.75
2023-04-25T07:55:24.512Z,1.88
2023-04-25T07:58:02.906Z,1.57
2023-04-25T08:00:32.324Z,1.70
2023-04-25T08:03:19.670Z,1.40
2023-04-25T08:05:47.764Z,1.38
2023-04-25T08:08:15.695Z,1.80
2023-04-25T08:10:44.030Z,1.73
2023-04-25T08:13:12.096Z,2.40
2023-04-25T08:15:40.754Z,2.53
2023-04-25T08:18:08.392Z,2.65
2023-04-25T08:20:35.888Z,1.80
2023-04-25T08:23:06.154Z,2.55
2023-04-25T08:25:53.394Z,2.17
2023-04-25T08:28:24.980Z,2.05
2023-04-25T08:30:52.588Z,2.17
2023-04-25T08:33:20.986Z,1.57
2023-04-25T08:36:02.406Z,1.45
2023-04-25T08:38:30.743Z,1.42
2023-04-25T08:40:58.534Z,1.20
2023-04-25T08:43:26.790Z,1.92
2023-04-25T08:45:55.695Z,2.30
2023-04-25T08:48:36.024Z,2.33
2023-04-25T08:51:06.393Z,2.58
2023-04-25T08:53:36.270Z,1.63
2023-04-25T08:56:06.929Z,1.38
2023-04-25T08:58:37.523Z,0.95
2023-04-25T09:01:05.552Z,1.90
2023-04-25T09:03:39.751Z,1.60
2023-04-25T09:06:07.191Z,2.30
2023-04-25T09:08:35.940Z,1.55
2023-04-25T09:11:04.017Z,2.88
2023-04-25T09:13:31.380Z,2.08
2023-04-25T09:16:28.470Z,1.10
2023-04-25T09:19:32.011Z,0.90
2023-04-25T09:22:06.984Z,1.38
2023-04-25T09:24:38.631Z,1.02
2023-04-25T09:27:06.590Z,1.70
2023-04-25T09:29:34.447Z,1.10
2023-04-25T09:32:14.166Z,1.33
2023-04-25T09:34:42.996Z,0.73
2023-04-25T09:37:11.756Z,0.63
2023-04-25T09:40:06.931Z,1.45
2023-04-25T09:42:37.912Z,1.00
2023-04-25T09:45:05.546Z,0.63
2023-04-25T09:47:40.020Z,1.35
2023-04-25T09:50:20.391Z,1.10
2023-04-25T09:53:04.827Z,1.63
2023-04-25T09:55:41.714Z,1.55
2023-04-25T09:58:10.412Z,2.45
2023-04-25T10:00:39.843Z,1.10
2023-04-25T10:03:22.250Z,1.40
2023-04-25T10:06:03.885Z,1.40
2023-04-25T10:08:34.790Z,1.30
2023-04-25T10:11:03.733Z,1.77
2023-04-25T10:13:31.962Z,1.55
2023-04-25T10:16:00.062Z,1.30
2023-04-25T10:18:28.447Z,1.38
2023-04-25T10:20:56.609Z,1.60
2023-04-25T10:23:24.714Z,2.83
2023-04-25T10:25:53.087Z,1.42
2023-04-25T10:28:20.933Z,1.83
2023-04-25T10:31:01.352Z,1.38
2023-04-25T10:33:39.028Z,1.63
2023-04-25T10:36:22.598Z,1.85
2023-04-25T10:38:53.541Z,1.10
2023-04-25T10:41:21.520Z,1.58
2023-04-25T10:43:50.014Z,1.55
2023-04-25T10:46:18.689Z,2.08
2023-04-25T10:49:14.357Z,1.50
2023-04-25T10:54:21.011Z,2.22
2023-04-25T10:56:50.618Z,0.98
2023-04-25T10:59:19.336Z,3.70
2023-04-25T11:01:52.561Z,2.58
2023-04-25T11:04:27.256Z,2.65
2023-04-25T11:09:55.099Z,1.60
2023-04-25T11:12:22.347Z,1.40
2023-04-25T11:14:49.616Z,1.58
2023-04-25T11:17:16.962Z,1.50
2023-04-25T11:19:44.281Z,2.38
2023-04-25T11:22:12.125Z,2.03
2023-04-25T11:24:39.565Z,2.20
2023-04-25T11:27:07.190Z,3.80
2023-04-25T11:29:35.332Z,3.00
2023-04-25T11:32:03.382Z,6.95
2023-04-25T11:34:31.953Z,4.77
2023-04-25T11:36:59.453Z,1.65
2023-04-25T11:39:27.079Z,2.63
2023-04-25T11:41:54.865Z,1.70
2023-04-25T11:44:22.479Z,1.30
2023-04-25T11:46:50.033Z,1.98
2023-04-25T11:49:19.251Z,1.40
2023-04-25T11:51:48.413Z,1.30
2023-04-25T11:54:16.435Z,1.60
2023-04-25T11:56:44.492Z,2.78
2023-04-25T11:59:12.668Z,1.38
2023-04-25T12:01:41.649Z,2.10
2023-04-25T12:04:17.181Z,2.83
2023-04-25T12:06:48.512Z,1.77
2023-04-25T12:09:16.965Z,2.75
2023-04-25T12:11:45.116Z,1.23
2023-04-25T12:14:12.962Z,1.58
2023-04-25T12:16:48.438Z,1.30
2023-04-25T12:19:16.889Z,1.75
2023-04-25T12:24:19.187Z,1.40
2023-04-25T12:26:51.167Z,1.20
2023-04-25T12:29:19.323Z,1.83
2023-04-25T12:31:46.792Z,2.28
2023-04-25T12:34:14.206Z,2.13
2023-04-25T12:36:41.459Z,1.63
2023-04-25T12:39:09.041Z,1.80
2023-04-25T12:41:36.271Z,2.28
2023-04-25T12:44:03.525Z,2.45
2023-04-25T12:46:30.894Z,1.00
2023-04-25T12:49:05.320Z,1.55
2023-04-25T12:51:39.279Z,1.35
2023-04-25T12:54:08.203Z,1.40
2023-04-25T12:59:04.040Z,1.55
2023-04-25T13:01:31.899Z,1.08
2023-04-25T13:07:02.213Z,1.80
2023-04-25T13:09:29.542Z,1.45
2023-04-25T13:11:58.403Z,1.45
2023-04-25T13:14:26.659Z,1.50
2023-04-25T13:16:55.309Z,1.92
2023-04-25T13:19:22.836Z,1.20
2023-04-25T13:21:50.994Z,2.15
2023-04-25T13:24:18.283Z,1.70
2023-04-25T13:26:45.653Z,1.15
2023-04-25T13:29:12.867Z,0.93
2023-04-25T13:31:40.166Z,1.20
2023-04-25T13:34:07.624Z,1.23
2023-04-25T13:36:34.975Z,1.48
2023-04-25T13:39:02.261Z,1.35
2023-04-25T13:41:29.928Z,2.17
2023-04-25T13:43:57.249Z,1.13
2023-04-25T13:46:44.756Z,2.70
2023-04-25T13:49:13.486Z,1.48
2023-04-25T13:51:41.411Z,1.30
2023-04-25T13:54:08.881Z,1.60
2023-04-25T13:56:36.397Z,2.20
2023-04-25T13:59:03.940Z,1.45
2023-04-25T14:01:35.079Z,1.10
2023-04-25T14:04:02.827Z,1.15
2023-04-25T14:06:30.232Z,1.17
2023-04-25T14:08:57.589Z,1.65
2023-04-25T14:11:24.922Z,1.08
2023-04-25T14:13:52.435Z,1.50
2023-04-25T14:16:20.134Z,1.00
2023-04-25T14:18:47.493Z,1.13
2023-04-25T14:21:14.901Z,1.42
2023-04-25T14:23:45.509Z,1.10
2023-04-25T14:26:13.712Z,1.60
2023-04-25T14:28:41.424Z,1.33
2023-04-25T14:31:08.714Z,1.70
2023-04-25T14:33:36.470Z,1.38
2023-04-25T14:36:04.345Z,1.20
2023-04-25T14:38:31.630Z,1.50
2023-04-25T14:41:01.523Z,1.50
2023-04-25T14:43:31.415Z,1.83
2023-04-25T14:45:58.734Z,2.28
2023-04-25T14:48:26.460Z,1.30
2023-04-25T14:50:53.939Z,1.30
2023-04-25T14:53:21.674Z,1.85
2023-04-25T14:55:49.781Z,1.30
2023-04-25T14:58:17.123Z,1.67
2023-04-25T15:00:45.341Z,2.15
2023-04-25T15:03:17.389Z,1.60
2023-04-25T15:05:45.802Z,1.92
2023-04-25T15:08:13.330Z,1.20
2023-04-25T15:10:40.698Z,1.90
2023-04-25T15:13:08.567Z,2.63
2023-04-25T15:15:35.829Z,1.48
2023-04-25T15:18:03.763Z,2.28
2023-04-25T15:20:31.144Z,1.33
2023-04-25T15:22:58.409Z,2.30
2023-04-25T15:25:26.118Z,1.23
2023-04-25T15:27:55.879Z,0.93
2023-04-25T15:30:23.380Z,1.73
2023-04-25T15:32:50.758Z,1.35
2023-04-25T15:35:18.011Z,1.20
2023-04-25T15:37:46.613Z,1.03
2023-04-25T15:40:16.314Z,1.45
2023-04-25T15:42:44.701Z,1.20
2023-04-25T15:45:12.430Z,1.60
2023-04-25T15:47:39.866Z,1.60
2023-04-25T15:50:08.355Z,1.30
2023-04-25T15:52:36.767Z,1.40
2023-04-25T15:55:10.438Z,1.57
2023-04-25T15:57:37.838Z,1.25
2023-04-25T16:00:17.756Z,1.95
2023-04-25T16:02:45.992Z,2.67
2023-04-25T16:05:14.590Z,1.40
2023-04-25T16:07:42.611Z,1.70
2023-04-25T16:10:11.143Z,2.20
2023-04-25T16:12:38.945Z,2.50
2023-04-25T16:15:06.538Z,2.28
2023-04-25T16:17:34.267Z,1.70
2023-04-25T16:20:04.687Z,1.88
2023-04-25T16:22:32.374Z,2.40
2023-04-25T16:24:59.619Z,3.63
2023-04-25T16:27:27.109Z,1.73
2023-04-25T16:29:54.376Z,2.50
2023-04-25T16:32:21.664Z,2.25
2023-04-25T16:34:49.034Z,1.25
2023-04-25T16:37:16.327Z,1.42
2023-04-25T16:39:43.616Z,1.88
2023-04-25T16:42:11.113Z,1.80
2023-04-25T16:44:38.462Z,2.13
2023-04-25T16:47:06.055Z,3.33
2023-04-25T16:49:33.660Z,1.90
2023-04-25T16:52:00.912Z,2.80
2023-04-25T16:54:28.464Z,2.13
2023-04-25T16:56:55.767Z,1.83
2023-04-25T16:59:23.028Z,1.80
2023-04-25T17:01:50.466Z,2.40
2023-04-25T17:04:17.895Z,2.15
2023-04-25T17:06:45.304Z,2.20
2023-04-25T17:09:12.565Z,2.47
2023-04-25T17:11:40.014Z,1.92
2023-04-25T17:14:07.714Z,2.33
2023-04-25T17:16:36.538Z,2.00
2023-04-25T17:19:04.797Z,2.55
2023-04-25T17:21:32.154Z,2.08
2023-04-25T17:23:59.795Z,1.92
2023-04-25T17:26:27.599Z,2.63
2023-04-25T17:28:55.218Z,2.10
2023-04-25T17:31:23.813Z,2.83
2023-04-25T17:33:51.752Z,2.92
2023-04-25T17:36:19.308Z,2.30
2023-04-25T17:38:47.073Z,2.50
2023-04-25T17:41:15.095Z,3.20
2023-04-25T17:43:42.462Z,2.90
2023-04-25T17:46:09.805Z,3.70
2023-04-25T17:48:37.165Z,3.90
2023-04-25T17:51:04.507Z,3.38
2023-04-25T17:53:31.874Z,2.85
2023-04-25T17:55:59.159Z,3.80
2023-04-25T17:58:27.317Z,3.25
2023-04-25T18:00:54.508Z,3.30
2023-04-25T18:03:21.900Z,2.90
2023-04-25T18:05:49.415Z,2.88
2023-04-25T18:08:16.813Z,3.60
2023-04-25T18:10:44.195Z,2.78
2023-04-25T18:13:11.454Z,2.53
2023-04-25T18:15:38.904Z,2.85
2023-04-25T18:18:19.682Z,3.33
2023-04-25T18:20:47.544Z,3.35
2023-04-25T18:23:14.807Z,2.83
2023-04-25T18:25:42.018Z,2.28
2023-04-25T18:28:09.321Z,3.28
2023-04-25T18:30:37.916Z,2.85
2023-04-25T18:33:05.491Z,2.67
2023-04-25T18:35:32.772Z,2.85
2023-04-25T18:38:00.029Z,4.40
2023-04-25T18:40:27.405Z,2.45
2023-04-25T18:42:54.719Z,3.53
2023-04-25T18:45:22.018Z,2.88
2023-04-25T18:47:49.311Z,2.85
2023-04-25T18:50:20.422Z,2.78
2023-04-25T18:52:47.663Z,2.55
2023-04-25T18:55:15.161Z,2.78
2023-04-25T18:57:42.967Z,2.95
2023-04-25T19:00:11.310Z,3.70
2023-04-25T19:02:38.902Z,3.07
2023-04-25T19:05:06.750Z,2.83
2023-04-25T19:07:33.987Z,3.28
2023-04-25T19:10:01.278Z,4.32
2023-04-25T19:12:28.636Z,4.07
2023-04-25T19:14:56.483Z,4.20
2023-04-25T19:17:23.792Z,3.95
2023-04-25T19:19:51.130Z,4.30
2023-04-25T19:22:18.478Z,4.40
2023-04-25T19:24:48.728Z,4.30
2023-04-25T19:27:20.205Z,5.10
2023-04-25T19:29:48.358Z,4.00
2023-04-25T19:32:15.995Z,3.30
2023-04-25T19:34:43.278Z,5.00
2023-04-25T19:37:10.673Z,3.85
2023-04-25T19:39:37.952Z,4.80
2023-04-25T19:42:06.677Z,3.85
2023-04-25T19:44:33.949Z,4.03
2023-04-25T19:47:01.863Z,3.88
2023-04-25T19:49:29.250Z,3.80
2023-04-25T19:51:57.233Z,3.47
2023-04-25T19:54:24.577Z,4.82
2023-04-25T19:56:51.873Z,3.47
2023-04-25T19:59:19.154Z,4.07
2023-04-25T20:01:46.571Z,4.53
2023-04-25T20:04:14.146Z,4.38
2023-04-25T20:06:41.463Z,3.75
2023-04-25T20:09:09.553Z,4.18
2023-04-25T20:11:36.835Z,4.07
2023-04-25T20:14:05.809Z,4.15
2023-04-25T20:16:33.185Z,3.95
2023-04-25T20:19:01.496Z,5.28
2023-04-25T20:21:29.654Z,4.07
2023-04-25T20:23:58.002Z,4.60
2023-04-25T20:26:25.880Z,4.15
2023-04-25T20:28:53.526Z,5.13
2023-04-25T20:31:21.112Z,4.05
2023-04-25T20:33:48.767Z,5.22
2023-04-25T20:36:16.098Z,4.93
2023-04-25T20:38:43.386Z,4.35
2023-04-25T20:41:10.627Z,5.05
2023-04-25T20:43:40.354Z,5.63
2023-04-25T20:46:08.264Z,5.75
2023-04-25T20:48:35.817Z,4.97
2023-04-25T20:51:03.972Z,6.97
2023-04-25T20:53:31.389Z,6.63
2023-04-25T20:55:59.433Z,5.53
2023-04-25T20:58:27.420Z,5.78
2023-04-25T21:00:56.477Z,6.78
2023-04-25T21:03:24.048Z,6.32
2023-04-25T21:05:51.517Z,5.03
2023-04-25T21:08:18.762Z,6.28
2023-04-25T21:10:46.087Z,6.22
2023-04-25T21:13:13.557Z,6.70
2023-04-25T21:15:41.056Z,6.53
2023-04-25T21:18:08.343Z,6.47
2023-04-25T21:20:36.065Z,6.93
2023-04-25T21:23:03.423Z,7.30
2023-04-25T21:25:33.886Z,7.03
2023-04-25T21:28:02.730Z,7.30
2023-04-25T21:30:30.794Z,7.30
2023-04-25T21:32:58.157Z,6.85
2023-04-25T21:35:25.672Z,7.32
2023-04-25T21:37:53.178Z,7.22
2023-04-25T21:40:20.888Z,8.95
2023-04-25T21:42:53.358Z,7.63
2023-04-25T21:45:21.499Z,7.38
2023-04-25T21:47:49.112Z,6.85
2023-04-25T21:50:16.814Z,7.93
2023-04-25T21:52:44.098Z,6.78
2023-04-25T21:55:11.792Z,6.18
2023-04-25T21:57:39.070Z,7.65
2023-04-25T22:00:20.081Z,5.65
2023-04-25T22:02:47.986Z,5.43
2023-04-25T22:05:15.454Z,6.65
2023-04-25T22:07:42.732Z,5.13
2023-04-25T22:10:10.186Z,4.93
2023-04-25T22:12:37.434Z,5.07
2023-04-25T22:15:05.111Z,5.15
2023-04-25T22:17:33.049Z,4.57
2023-04-25T22:20:00.304Z,4.85
2023-04-25T22:22:27.865Z,4.57
2023-04-25T22:24:55.182Z,5.07
2023-04-25T22:27:22.480Z,6.28
2023-04-25T22:29:49.767Z,5.15
2023-04-25T22:32:17.504Z,4.63
2023-04-25T22:34:45.456Z,5.28
2023-04-25T22:37:12.661Z,4.93
2023-04-25T22:39:40.272Z,5.50
2023-04-25T22:42:07.622Z,4.65
2023-04-25T22:44:34.905Z,4.13
2023-04-25T22:47:02.166Z,4.80
2023-04-25T22:49:29.483Z,4.35
2023-04-25T22:51:57.440Z,4.55
2023-04-25T22:54:24.772Z,4.25
2023-04-25T22:56:52.393Z,4.05
2023-04-25T22:59:20.789Z,4.75
2023-04-25T23:01:50.080Z,5.53
2023-04-25T23:04:19.014Z,4.05
2023-04-25T23:06:46.644Z,4.22
2023-04-25T23:09:14.075Z,3.92
2023-04-25T23:11:44.443Z,4.30
2023-04-25T23:14:11.704Z,4.63
2023-04-25T23:16:40.721Z,5.00
2023-04-25T23:19:08.108Z,4.30
2023-04-25T23:21:35.304Z,4.50
2023-04-25T23:24:02.592Z,4.95
2023-04-25T23:26:30.082Z,5.10
2023-04-25T23:28:57.386Z,4.65
2023-04-25T23:31:24.661Z,5.70
2023-04-25T23:33:51.975Z,4.80
2023-04-25T23:36:22.598Z,4.20
2023-04-25T23:38:50.670Z,3.92
2023-04-25T23:41:18.161Z,4.45
2023-04-25T23:43:45.741Z,4.25
2023-04-25T23:46:13.568Z,4.57
2023-04-25T23:48:41.576Z,6.32
2023-04-25T23:51:08.814Z,5.72
2023-04-25T23:53:36.431Z,3.97
2023-04-25T23:56:05.164Z,5.68
2023-04-25T23:58:32.380Z,4.97
